Stavropol', Russia
Current Conditions -  °F | °C
As of 4:30 AM on Sunday 21 Dec 2014 (Local Time) from URMT Reporting Station
Clear Clear  
Wind Chill: 37°   Ceiling: Unl
Heat Index: 41°   Visibility: 6mi
Dew Point: 36°   Wind: 7mph
Humidity: 81%   Direction: 200°SSW
Pressure: 30"   Gusts: NA
Location:  45.04°N, 41.97°E
Report Text: URMT 210130Z 20003MPS CAVOK 05/02 Q1016 NOSIG RMK QFE723 SC060
Loading
Personal Weather Stations






























Interactive Weather Map New forecast layout! Learn more

10-Day Weather Forecast

Advertisements
Track Severe Weather on mobile